sensor_id;sensor_type;location;lat;lon;timestamp;P1;durP1;ratioP1;P2;durP2;ratioP2
44048;SDS011;29717;47.028;15.470;2023-09-18T00:01:03;9.25;;;8.40;;
44048;SDS011;29717;47.028;15.470;2023-09-18T00:03:30;8.45;;;7.72;;
44048;SDS011;29717;47.028;15.470;2023-09-18T00:05:58;8.13;;;7.38;;
44048;SDS011;29717;47.028;15.470;2023-09-18T00:08:25;8.30;;;7.60;;
44048;SDS011;29717;47.028;15.470;2023-09-18T00:10:52;8.82;;;7.13;;
44048;SDS011;29717;47.028;15.470;2023-09-18T00:13:19;8.05;;;7.38;;
44048;SDS011;29717;47.028;15.470;2023-09-18T00:15:48;8.88;;;8.07;;
44048;SDS011;29717;47.028;15.470;2023-09-18T00:18:16;8.73;;;7.88;;
44048;SDS011;29717;47.028;15.470;2023-09-18T00:20:43;8.20;;;7.50;;
44048;SDS011;29717;47.028;15.470;2023-09-18T00:23:13;8.52;;;7.82;;
44048;SDS011;29717;47.028;15.470;2023-09-18T00:25:40;7.97;;;7.35;;
44048;SDS011;29717;47.028;15.470;2023-09-18T00:28:07;8.65;;;7.85;;
44048;SDS011;29717;47.028;15.470;2023-09-18T00:30:34;8.18;;;7.38;;
44048;SDS011;29717;47.028;15.470;2023-09-18T00:33:03;8.20;;;7.50;;
44048;SDS011;29717;47.028;15.470;2023-09-18T00:35:29;7.80;;;7.10;;
44048;SDS011;29717;47.028;15.470;2023-09-18T00:37:56;8.07;;;7.40;;
44048;SDS011;29717;47.028;15.470;2023-09-18T00:40:23;8.27;;;7.60;;
44048;SDS011;29717;47.028;15.470;2023-09-18T00:42:50;8.07;;;7.28;;
44048;SDS011;29717;47.028;15.470;2023-09-18T00:45:16;7.88;;;7.07;;
44048;SDS011;29717;47.028;15.470;2023-09-18T00:47:43;9.23;;;8.30;;
44048;SDS011;29717;47.028;15.470;2023-09-18T00:50:11;8.50;;;7.78;;
44048;SDS011;29717;47.028;15.470;2023-09-18T00:52:39;8.10;;;7.45;;
44048;SDS011;29717;47.028;15.470;2023-09-18T00:55:06;9.27;;;7.63;;
44048;SDS011;29717;47.028;15.470;2023-09-18T00:57:34;8.80;;;7.90;;
44048;SDS011;29717;47.028;15.470;2023-09-18T01:00:01;9.25;;;7.97;;
44048;SDS011;29717;47.028;15.470;2023-09-18T01:02:29;9.18;;;7.28;;
44048;SDS011;29717;47.028;15.470;2023-09-18T01:04:56;8.75;;;7.60;;
44048;SDS011;29717;47.028;15.470;2023-09-18T01:07:24;8.18;;;7.47;;
44048;SDS011;29717;47.028;15.470;2023-09-18T01:09:50;9.52;;;8.63;;
44048;SDS011;29717;47.028;15.470;2023-09-18T01:12:18;8.43;;;7.63;;
44048;SDS011;29717;47.028;15.470;2023-09-18T01:14:50;8.63;;;7.82;;
44048;SDS011;29717;47.028;15.470;2023-09-18T01:17:20;8.73;;;7.97;;
44048;SDS011;29717;47.028;15.470;2023-09-18T01:19:47;9.55;;;8.63;;
44048;SDS011;29717;47.028;15.470;2023-09-18T01:22:14;10.15;;;8.20;;
44048;SDS011;29717;47.028;15.470;2023-09-18T01:24:43;7.82;;;7.22;;
44048;SDS011;29717;47.028;15.470;2023-09-18T01:27:11;8.48;;;7.57;;
44048;SDS011;29717;47.028;15.470;2023-09-18T01:29:39;9.18;;;8.32;;
44048;SDS011;29717;47.028;15.470;2023-09-18T01:32:06;9.50;;;8.35;;
44048;SDS011;29717;47.028;15.470;2023-09-18T01:34:33;9.38;;;8.38;;
44048;SDS011;29717;47.028;15.470;2023-09-18T01:37:01;11.07;;;8.77;;
44048;SDS011;29717;47.028;15.470;2023-09-18T01:39:28;8.70;;;7.78;;
44048;SDS011;29717;47.028;15.470;2023-09-18T01:41:58;9.50;;;8.70;;
44048;SDS011;29717;47.028;15.470;2023-09-18T01:44:25;8.25;;;7.55;;
44048;SDS011;29717;47.028;15.470;2023-09-18T01:46:51;10.10;;;8.30;;
44048;SDS011;29717;47.028;15.470;2023-09-18T01:49:26;8.52;;;7.82;;
44048;SDS011;29717;47.028;15.470;2023-09-18T01:51:52;8.43;;;7.72;;
44048;SDS011;29717;47.028;15.470;2023-09-18T01:54:19;10.45;;;8.48;;
44048;SDS011;29717;47.028;15.470;2023-09-18T01:56:46;8.65;;;7.85;;
44048;SDS011;29717;47.028;15.470;2023-09-18T01:59:14;9.82;;;8.55;;
44048;SDS011;29717;47.028;15.470;2023-09-18T02:01:41;10.15;;;9.25;;
44048;SDS011;29717;47.028;15.470;2023-09-18T02:04:08;9.05;;;8.15;;
44048;SDS011;29717;47.028;15.470;2023-09-18T02:06:35;9.63;;;8.68;;
44048;SDS011;29717;47.028;15.470;2023-09-18T02:09:01;9.10;;;8.20;;
44048;SDS011;29717;47.028;15.470;2023-09-18T02:11:29;9.10;;;8.30;;
44048;SDS011;29717;47.028;15.470;2023-09-18T02:13:55;9.88;;;8.88;;
44048;SDS011;29717;47.028;15.470;2023-09-18T02:16:23;9.80;;;7.72;;
44048;SDS011;29717;47.028;15.470;2023-09-18T02:18:53;9.75;;;8.75;;
44048;SDS011;29717;47.028;15.470;2023-09-18T02:21:20;9.40;;;8.50;;
44048;SDS011;29717;47.028;15.470;2023-09-18T02:23:48;9.50;;;8.40;;
44048;SDS011;29717;47.028;15.470;2023-09-18T02:26:15;9.10;;;8.30;;
44048;SDS011;29717;47.028;15.470;2023-09-18T02:28:42;9.57;;;8.75;;
44048;SDS011;29717;47.028;15.470;2023-09-18T02:31:08;9.10;;;8.30;;
44048;SDS011;29717;47.028;15.470;2023-09-18T02:33:37;9.50;;;8.50;;
44048;SDS011;29717;47.028;15.470;2023-09-18T02:36:04;10.88;;;9.02;;
44048;SDS011;29717;47.028;15.470;2023-09-18T02:38:30;8.98;;;8.05;;
44048;SDS011;29717;47.028;15.470;2023-09-18T02:40:57;9.77;;;8.73;;
44048;SDS011;29717;47.028;15.470;2023-09-18T02:43:24;9.15;;;8.35;;
44048;SDS011;29717;47.028;15.470;2023-09-18T02:45:50;9.57;;;8.10;;
44048;SDS011;29717;47.028;15.470;2023-09-18T02:48:18;9.52;;;8.60;;
44048;SDS011;29717;47.028;15.470;2023-09-18T02:50:46;9.73;;;8.35;;
44048;SDS011;29717;47.028;15.470;2023-09-18T02:53:16;8.95;;;8.05;;
44048;SDS011;29717;47.028;15.470;2023-09-18T02:55:43;9.45;;;8.55;;
44048;SDS011;29717;47.028;15.470;2023-09-18T02:58:10;10.30;;;9.35;;
44048;SDS011;29717;47.028;15.470;2023-09-18T03:00:40;9.88;;;9.00;;
44048;SDS011;29717;47.028;15.470;2023-09-18T03:03:07;10.75;;;9.82;;
44048;SDS011;29717;47.028;15.470;2023-09-18T03:05:33;10.15;;;9.23;;
44048;SDS011;29717;47.028;15.470;2023-09-18T03:08:02;9.15;;;8.20;;
44048;SDS011;29717;47.028;15.470;2023-09-18T03:10:32;8.40;;;7.70;;
44048;SDS011;29717;47.028;15.470;2023-09-18T03:12:59;8.65;;;7.97;;
44048;SDS011;29717;47.028;15.470;2023-09-18T03:15:26;8.15;;;7.45;;
44048;SDS011;29717;47.028;15.470;2023-09-18T03:17:53;9.32;;;8.45;;
44048;SDS011;29717;47.028;15.470;2023-09-18T03:20:21;10.45;;;8.20;;
44048;SDS011;29717;47.028;15.470;2023-09-18T03:22:48;8.82;;;8.13;;
44048;SDS011;29717;47.028;15.470;2023-09-18T03:25:16;9.85;;;8.95;;
44048;SDS011;29717;47.028;15.470;2023-09-18T03:27:43;9.52;;;8.65;;
44048;SDS011;29717;47.028;15.470;2023-09-18T03:30:10;8.52;;;7.82;;
44048;SDS011;29717;47.028;15.470;2023-09-18T03:32:38;8.65;;;7.85;;
44048;SDS011;29717;47.028;15.470;2023-09-18T03:35:04;9.88;;;8.98;;
44048;SDS011;29717;47.028;15.470;2023-09-18T03:37:31;10.48;;;9.48;;
44048;SDS011;29717;47.028;15.470;2023-09-18T03:39:58;11.40;;;9.90;;
44048;SDS011;29717;47.028;15.470;2023-09-18T03:42:27;10.75;;;9.43;;
44048;SDS011;29717;47.028;15.470;2023-09-18T03:44:53;12.32;;;10.43;;
44048;SDS011;29717;47.028;15.470;2023-09-18T03:47:20;14.35;;;10.73;;
44048;SDS011;29717;47.028;15.470;2023-09-18T03:49:47;10.70;;;9.70;;
44048;SDS011;29717;47.028;15.470;2023-09-18T03:52:13;13.10;;;11.70;;
44048;SDS011;29717;47.028;15.470;2023-09-18T03:54:40;11.23;;;10.00;;
44048;SDS011;29717;47.028;15.470;2023-09-18T03:57:07;12.70;;;11.40;;
44048;SDS011;29717;47.028;15.470;2023-09-18T03:59:35;13.45;;;12.05;;
44048;SDS011;29717;47.028;15.470;2023-09-18T04:02:01;15.68;;;11.05;;
44048;SDS011;29717;47.028;15.470;2023-09-18T04:04:28;36.33;;;12.20;;
44048;SDS011;29717;47.028;15.470;2023-09-18T04:06:55;17.98;;;12.52;;
44048;SDS011;29717;47.028;15.470;2023-09-18T04:09:22;18.45;;;14.35;;
44048;SDS011;29717;47.028;15.470;2023-09-18T04:11:48;15.07;;;13.48;;
44048;SDS011;29717;47.028;15.470;2023-09-18T04:14:15;14.40;;;12.55;;
44048;SDS011;29717;47.028;15.470;2023-09-18T04:16:43;14.10;;;12.60;;
44048;SDS011;29717;47.028;15.470;2023-09-18T04:19:09;14.95;;;11.80;;
44048;SDS011;29717;47.028;15.470;2023-09-18T04:21:36;14.70;;;10.80;;
44048;SDS011;29717;47.028;15.470;2023-09-18T04:24:03;12.02;;;10.93;;
44048;SDS011;29717;47.028;15.470;2023-09-18T04:26:30;12.27;;;11.07;;
44048;SDS011;29717;47.028;15.470;2023-09-18T04:28:58;11.95;;;9.95;;
44048;SDS011;29717;47.028;15.470;2023-09-18T04:31:25;11.88;;;10.75;;
44048;SDS011;29717;47.028;15.470;2023-09-18T04:33:53;10.82;;;9.77;;
44048;SDS011;29717;47.028;15.470;2023-09-18T04:36:20;11.18;;;10.07;;
44048;SDS011;29717;47.028;15.470;2023-09-18T04:38:47;14.43;;;10.95;;
44048;SDS011;29717;47.028;15.470;2023-09-18T04:41:13;11.75;;;10.65;;
44048;SDS011;29717;47.028;15.470;2023-09-18T04:43:40;11.45;;;10.35;;
44048;SDS011;29717;47.028;15.470;2023-09-18T04:46:08;12.05;;;10.77;;
44048;SDS011;29717;47.028;15.470;2023-09-18T04:48:34;13.20;;;10.25;;
44048;SDS011;29717;47.028;15.470;2023-09-18T04:51:02;11.38;;;9.98;;
44048;SDS011;29717;47.028;15.470;2023-09-18T04:53:30;15.27;;;9.75;;
44048;SDS011;29717;47.028;15.470;2023-09-18T04:55:57;13.13;;;9.70;;
44048;SDS011;29717;47.028;15.470;2023-09-18T04:58:23;12.45;;;10.10;;
44048;SDS011;29717;47.028;15.470;2023-09-18T05:00:53;11.75;;;9.95;;
44048;SDS011;29717;47.028;15.470;2023-09-18T05:03:20;10.52;;;9.25;;
44048;SDS011;29717;47.028;15.470;2023-09-18T05:05:46;11.95;;;10.77;;
44048;SDS011;29717;47.028;15.470;2023-09-18T05:08:14;10.57;;;9.23;;
44048;SDS011;29717;47.028;15.470;2023-09-18T05:10:41;13.85;;;8.38;;
44048;SDS011;29717;47.028;15.470;2023-09-18T05:13:08;9.68;;;8.57;;
44048;SDS011;29717;47.028;15.470;2023-09-18T05:15:35;11.63;;;9.10;;
44048;SDS011;29717;47.028;15.470;2023-09-18T05:18:02;10.73;;;9.63;;
44048;SDS011;29717;47.028;15.470;2023-09-18T05:20:29;12.25;;;9.80;;
44048;SDS011;29717;47.028;15.470;2023-09-18T05:22:57;10.18;;;9.05;;
44048;SDS011;29717;47.028;15.470;2023-09-18T05:25:27;10.05;;;9.05;;
44048;SDS011;29717;47.028;15.470;2023-09-18T05:27:54;15.90;;;9.40;;
44048;SDS011;29717;47.028;15.470;2023-09-18T05:30:23;10.65;;;8.23;;
44048;SDS011;29717;47.028;15.470;2023-09-18T05:32:53;10.07;;;8.98;;
44048;SDS011;29717;47.028;15.470;2023-09-18T05:35:19;13.93;;;8.77;;
44048;SDS011;29717;47.028;15.470;2023-09-18T05:37:46;10.15;;;9.15;;
44048;SDS011;29717;47.028;15.470;2023-09-18T05:40:14;10.23;;;9.27;;
44048;SDS011;29717;47.028;15.470;2023-09-18T05:42:42;12.23;;;8.63;;
44048;SDS011;29717;47.028;15.470;2023-09-18T05:45:09;17.23;;;9.65;;
44048;SDS011;29717;47.028;15.470;2023-09-18T05:47:36;15.10;;;8.68;;
44048;SDS011;29717;47.028;15.470;2023-09-18T05:50:05;9.45;;;8.32;;
44048;SDS011;29717;47.028;15.470;2023-09-18T05:52:32;10.98;;;9.18;;
44048;SDS011;29717;47.028;15.470;2023-09-18T05:54:59;10.68;;;8.68;;
44048;SDS011;29717;47.028;15.470;2023-09-18T05:57:25;12.77;;;8.68;;
44048;SDS011;29717;47.028;15.470;2023-09-18T05:59:55;11.93;;;9.48;;
44048;SDS011;29717;47.028;15.470;2023-09-18T06:02:21;9.60;;;8.68;;
44048;SDS011;29717;47.028;15.470;2023-09-18T06:04:48;9.82;;;8.82;;
44048;SDS011;29717;47.028;15.470;2023-09-18T06:07:15;10.35;;;9.07;;
44048;SDS011;29717;47.028;15.470;2023-09-18T06:09:41;9.77;;;8.82;;
44048;SDS011;29717;47.028;15.470;2023-09-18T06:12:08;10.18;;;8.40;;
44048;SDS011;29717;47.028;15.470;2023-09-18T06:14:36;10.55;;;8.98;;
44048;SDS011;29717;47.028;15.470;2023-09-18T06:17:05;12.85;;;8.70;;
44048;SDS011;29717;47.028;15.470;2023-09-18T06:19:32;11.57;;;8.02;;
44048;SDS011;29717;47.028;15.470;2023-09-18T06:22:00;10.80;;;8.02;;
44048;SDS011;29717;47.028;15.470;2023-09-18T06:24:27;12.30;;;7.93;;
44048;SDS011;29717;47.028;15.470;2023-09-18T06:26:53;12.70;;;8.10;;
44048;SDS011;29717;47.028;15.470;2023-09-18T06:29:20;9.95;;;8.27;;
44048;SDS011;29717;47.028;15.470;2023-09-18T06:31:47;8.40;;;7.57;;
44048;SDS011;29717;47.028;15.470;2023-09-18T06:34:15;7.57;;;6.88;;
44048;SDS011;29717;47.028;15.470;2023-09-18T06:36:41;7.65;;;6.95;;
44048;SDS011;29717;47.028;15.470;2023-09-18T06:39:08;9.40;;;7.25;;
44048;SDS011;29717;47.028;15.470;2023-09-18T06:41:35;10.50;;;7.30;;
44048;SDS011;29717;47.028;15.470;2023-09-18T06:44:02;8.57;;;7.72;;
44048;SDS011;29717;47.028;15.470;2023-09-18T06:46:29;8.00;;;7.20;;
44048;SDS011;29717;47.028;15.470;2023-09-18T06:48:55;9.88;;;7.40;;
44048;SDS011;29717;47.028;15.470;2023-09-18T06:51:24;8.98;;;6.78;;
44048;SDS011;29717;47.028;15.470;2023-09-18T06:53:50;9.10;;;7.20;;
44048;SDS011;29717;47.028;15.470;2023-09-18T06:56:17;10.13;;;6.70;;
44048;SDS011;29717;47.028;15.470;2023-09-18T06:58:43;12.77;;;7.03;;
44048;SDS011;29717;47.028;15.470;2023-09-18T07:01:11;7.75;;;7.00;;
44048;SDS011;29717;47.028;15.470;2023-09-18T07:03:38;8.48;;;6.85;;
44048;SDS011;29717;47.028;15.470;2023-09-18T07:06:05;8.80;;;6.97;;
44048;SDS011;29717;47.028;15.470;2023-09-18T07:08:33;7.53;;;6.78;;
44048;SDS011;29717;47.028;15.470;2023-09-18T07:11:01;9.13;;;6.80;;
44048;SDS011;29717;47.028;15.470;2023-09-18T07:13:28;8.38;;;6.32;;
44048;SDS011;29717;47.028;15.470;2023-09-18T07:15:54;10.40;;;6.32;;
44048;SDS011;29717;47.028;15.470;2023-09-18T07:18:21;6.65;;;5.97;;
44048;SDS011;29717;47.028;15.470;2023-09-18T07:20:48;8.73;;;6.82;;
44048;SDS011;29717;47.028;15.470;2023-09-18T07:23:14;7.65;;;7.00;;
44048;SDS011;29717;47.028;15.470;2023-09-18T07:25:43;9.57;;;6.57;;
44048;SDS011;29717;47.028;15.470;2023-09-18T07:28:10;7.82;;;6.65;;
44048;SDS011;29717;47.028;15.470;2023-09-18T07:30:41;7.15;;;6.55;;
44048;SDS011;29717;47.028;15.470;2023-09-18T07:33:09;7.50;;;6.43;;
44048;SDS011;29717;47.028;15.470;2023-09-18T07:35:35;7.53;;;6.85;;
44048;SDS011;29717;47.028;15.470;2023-09-18T07:38:03;15.25;;;7.35;;
44048;SDS011;29717;47.028;15.470;2023-09-18T07:40:29;9.40;;;6.20;;
44048;SDS011;29717;47.028;15.470;2023-09-18T07:42:58;12.57;;;6.68;;
44048;SDS011;29717;47.028;15.470;2023-09-18T07:45:24;7.43;;;6.43;;
44048;SDS011;29717;47.028;15.470;2023-09-18T07:47:51;9.18;;;6.63;;
44048;SDS011;29717;47.028;15.470;2023-09-18T07:50:18;9.02;;;6.90;;
44048;SDS011;29717;47.028;15.470;2023-09-18T07:52:44;9.75;;;6.97;;
44048;SDS011;29717;47.028;15.470;2023-09-18T07:55:11;9.60;;;7.68;;
44048;SDS011;29717;47.028;15.470;2023-09-18T07:57:37;8.95;;;7.22;;
44048;SDS011;29717;47.028;15.470;2023-09-18T08:00:06;8.15;;;7.35;;
44048;SDS011;29717;47.028;15.470;2023-09-18T08:02:37;8.60;;;6.63;;
44048;SDS011;29717;47.028;15.470;2023-09-18T08:05:04;10.43;;;7.20;;
44048;SDS011;29717;47.028;15.470;2023-09-18T08:07:31;8.07;;;7.25;;
44048;SDS011;29717;47.028;15.470;2023-09-18T08:09:58;7.55;;;6.82;;
44048;SDS011;29717;47.028;15.470;2023-09-18T08:12:25;7.50;;;6.68;;
44048;SDS011;29717;47.028;15.470;2023-09-18T08:14:51;7.10;;;6.18;;
44048;SDS011;29717;47.028;15.470;2023-09-18T08:17:19;6.10;;;5.50;;
44048;SDS011;29717;47.028;15.470;2023-09-18T08:19:46;6.20;;;5.55;;
44048;SDS011;29717;47.028;15.470;2023-09-18T08:22:17;6.28;;;5.68;;
44048;SDS011;29717;47.028;15.470;2023-09-18T08:24:44;6.60;;;6.00;;
44048;SDS011;29717;47.028;15.470;2023-09-18T08:27:11;5.53;;;5.03;;
44048;SDS011;29717;47.028;15.470;2023-09-18T08:29:38;7.03;;;5.07;;
44048;SDS011;29717;47.028;15.470;2023-09-18T08:32:04;4.95;;;4.55;;
44048;SDS011;29717;47.028;15.470;2023-09-18T08:34:32;5.50;;;5.00;;
44048;SDS011;29717;47.028;15.470;2023-09-18T08:36:59;5.70;;;5.13;;
44048;SDS011;29717;47.028;15.470;2023-09-18T08:39:26;6.15;;;5.68;;
44048;SDS011;29717;47.028;15.470;2023-09-18T08:41:53;6.10;;;5.47;;
44048;SDS011;29717;47.028;15.470;2023-09-18T08:44:22;6.05;;;5.32;;
44048;SDS011;29717;47.028;15.470;2023-09-18T08:46:52;7.07;;;5.45;;
44048;SDS011;29717;47.028;15.470;2023-09-18T08:49:18;5.93;;;4.88;;
44048;SDS011;29717;47.028;15.470;2023-09-18T08:51:47;4.95;;;4.50;;
44048;SDS011;29717;47.028;15.470;2023-09-18T08:54:14;4.10;;;3.80;;
44048;SDS011;29717;47.028;15.470;2023-09-18T08:56:41;4.22;;;3.72;;
44048;SDS011;29717;47.028;15.470;2023-09-18T08:59:08;4.90;;;4.32;;
44048;SDS011;29717;47.028;15.470;2023-09-18T09:01:34;4.32;;;4.00;;
44048;SDS011;29717;47.028;15.470;2023-09-18T09:04:01;7.03;;;4.50;;
44048;SDS011;29717;47.028;15.470;2023-09-18T09:06:29;4.60;;;4.15;;
44048;SDS011;29717;47.028;15.470;2023-09-18T09:08:57;6.80;;;3.75;;
44048;SDS011;29717;47.028;15.470;2023-09-18T09:11:24;5.18;;;4.28;;
44048;SDS011;29717;47.028;15.470;2023-09-18T09:13:56;4.40;;;4.07;;
44048;SDS011;29717;47.028;15.470;2023-09-18T09:16:34;3.95;;;3.63;;
44048;SDS011;29717;47.028;15.470;2023-09-18T09:19:01;7.00;;;3.67;;
44048;SDS011;29717;47.028;15.470;2023-09-18T09:21:37;9.25;;;3.75;;
44048;SDS011;29717;47.028;15.470;2023-09-18T09:24:06;4.18;;;3.75;;
44048;SDS011;29717;47.028;15.470;2023-09-18T09:26:32;3.88;;;3.58;;
44048;SDS011;29717;47.028;15.470;2023-09-18T09:29:10;4.22;;;3.92;;
44048;SDS011;29717;47.028;15.470;2023-09-18T09:31:40;3.75;;;3.45;;
44048;SDS011;29717;47.028;15.470;2023-09-18T09:34:07;4.75;;;3.70;;
44048;SDS011;29717;47.028;15.470;2023-09-18T09:36:34;3.42;;;3.03;;
44048;SDS011;29717;47.028;15.470;2023-09-18T09:39:01;4.57;;;3.13;;
44048;SDS011;29717;47.028;15.470;2023-09-18T09:41:32;4.00;;;3.53;;
44048;SDS011;29717;47.028;15.470;2023-09-18T09:43:59;3.55;;;3.00;;
44048;SDS011;29717;47.028;15.470;2023-09-18T09:46:25;3.70;;;3.40;;
44048;SDS011;29717;47.028;15.470;2023-09-18T09:48:59;3.50;;;3.30;;
44048;SDS011;29717;47.028;15.470;2023-09-18T09:51:26;3.88;;;3.53;;
44048;SDS011;29717;47.028;15.470;2023-09-18T09:53:53;4.32;;;3.85;;
44048;SDS011;29717;47.028;15.470;2023-09-18T09:56:20;3.50;;;3.25;;
44048;SDS011;29717;47.028;15.470;2023-09-18T09:59:01;4.35;;;3.60;;
44048;SDS011;29717;47.028;15.470;2023-09-18T10:01:29;6.05;;;3.50;;
44048;SDS011;29717;47.028;15.470;2023-09-18T10:03:57;3.47;;;3.25;;
44048;SDS011;29717;47.028;15.470;2023-09-18T10:06:25;3.40;;;3.10;;
44048;SDS011;29717;47.028;15.470;2023-09-18T10:08:55;3.35;;;3.05;;
44048;SDS011;29717;47.028;15.470;2023-09-18T10:11:22;3.30;;;3.00;;
44048;SDS011;29717;47.028;15.470;2023-09-18T10:13:52;3.22;;;3.03;;
44048;SDS011;29717;47.028;15.470;2023-09-18T10:16:22;3.53;;;3.22;;
44048;SDS011;29717;47.028;15.470;2023-09-18T10:18:54;4.05;;;3.60;;
44048;SDS011;29717;47.028;15.470;2023-09-18T10:21:25;4.57;;;3.55;;
44048;SDS011;29717;47.028;15.470;2023-09-18T10:23:59;3.60;;;3.30;;
44048;SDS011;29717;47.028;15.470;2023-09-18T10:26:26;3.90;;;3.20;;
44048;SDS011;29717;47.028;15.470;2023-09-18T10:28:54;3.78;;;3.45;;
44048;SDS011;29717;47.028;15.470;2023-09-18T10:31:25;4.55;;;3.35;;
44048;SDS011;29717;47.028;15.470;2023-09-18T10:33:52;4.82;;;3.80;;
44048;SDS011;29717;47.028;15.470;2023-09-18T10:36:20;3.80;;;3.40;;
44048;SDS011;29717;47.028;15.470;2023-09-18T10:38:47;3.80;;;3.42;;
44048;SDS011;29717;47.028;15.470;2023-09-18T10:41:17;3.70;;;3.40;;
44048;SDS011;29717;47.028;15.470;2023-09-18T10:43:44;3.38;;;3.03;;
44048;SDS011;29717;47.028;15.470;2023-09-18T10:46:12;3.72;;;3.42;;
44048;SDS011;29717;47.028;15.470;2023-09-18T10:48:40;3.33;;;3.10;;
44048;SDS011;29717;47.028;15.470;2023-09-18T10:51:07;3.70;;;3.40;;
44048;SDS011;29717;47.028;15.470;2023-09-18T10:53:34;3.92;;;3.55;;
44048;SDS011;29717;47.028;15.470;2023-09-18T10:56:01;4.88;;;3.60;;
44048;SDS011;29717;47.028;15.470;2023-09-18T10:58:29;4.78;;;3.80;;
44048;SDS011;29717;47.028;15.470;2023-09-18T11:00:59;5.40;;;4.38;;
44048;SDS011;29717;47.028;15.470;2023-09-18T11:03:25;4.00;;;3.70;;
44048;SDS011;29717;47.028;15.470;2023-09-18T11:06:03;3.90;;;3.60;;
44048;SDS011;29717;47.028;15.470;2023-09-18T11:08:32;3.83;;;3.47;;
44048;SDS011;29717;47.028;15.470;2023-09-18T11:11:01;3.72;;;3.40;;
44048;SDS011;29717;47.028;15.470;2023-09-18T11:13:35;4.20;;;3.70;;
44048;SDS011;29717;47.028;15.470;2023-09-18T11:16:03;4.28;;;3.65;;
44048;SDS011;29717;47.028;15.470;2023-09-18T11:18:39;3.28;;;3.00;;
44048;SDS011;29717;47.028;15.470;2023-09-18T11:21:11;6.03;;;4.20;;
44048;SDS011;29717;47.028;15.470;2023-09-18T11:23:38;4.22;;;3.92;;
44048;SDS011;29717;47.028;15.470;2023-09-18T11:26:08;4.63;;;4.22;;
44048;SDS011;29717;47.028;15.470;2023-09-18T11:28:35;4.60;;;4.20;;
44048;SDS011;29717;47.028;15.470;2023-09-18T11:31:03;4.15;;;3.85;;
44048;SDS011;29717;47.028;15.470;2023-09-18T11:33:31;5.78;;;4.00;;
44048;SDS011;29717;47.028;15.470;2023-09-18T11:38:27;4.07;;;3.75;;
44048;SDS011;29717;47.028;15.470;2023-09-18T11:40:53;4.13;;;3.83;;
44048;SDS011;29717;47.028;15.470;2023-09-18T11:43:21;4.60;;;3.58;;
44048;SDS011;29717;47.028;15.470;2023-09-18T11:45:52;3.78;;;3.47;;
44048;SDS011;29717;47.028;15.470;2023-09-18T11:48:20;3.97;;;3.17;;
44048;SDS011;29717;47.028;15.470;2023-09-18T11:50:53;4.45;;;3.40;;
44048;SDS011;29717;47.028;15.470;2023-09-18T11:53:20;4.75;;;3.55;;
44048;SDS011;29717;47.028;15.470;2023-09-18T11:55:48;3.53;;;3.22;;
44048;SDS011;29717;47.028;15.470;2023-09-18T11:58:15;4.38;;;3.80;;
44048;SDS011;29717;47.028;15.470;2023-09-18T12:00:48;4.85;;;3.83;;
44048;SDS011;29717;47.028;15.470;2023-09-18T12:03:16;4.10;;;3.80;;
44048;SDS011;29717;47.028;15.470;2023-09-18T12:05:51;4.45;;;4.05;;
44048;SDS011;29717;47.028;15.470;2023-09-18T12:08:17;3.42;;;3.13;;
44048;SDS011;29717;47.028;15.470;2023-09-18T12:10:44;4.80;;;3.17;;
44048;SDS011;29717;47.028;15.470;2023-09-18T12:13:15;4.10;;;3.40;;
44048;SDS011;29717;47.028;15.470;2023-09-18T12:15:42;6.15;;;3.67;;
44048;SDS011;29717;47.028;15.470;2023-09-18T12:18:09;4.18;;;3.78;;
44048;SDS011;29717;47.028;15.470;2023-09-18T12:20:37;4.32;;;3.92;;
44048;SDS011;29717;47.028;15.470;2023-09-18T12:23:04;4.28;;;3.97;;
44048;SDS011;29717;47.028;15.470;2023-09-18T12:25:33;4.05;;;3.67;;
44048;SDS011;29717;47.028;15.470;2023-09-18T12:27:59;7.47;;;5.28;;
44048;SDS011;29717;47.028;15.470;2023-09-18T12:30:30;4.85;;;4.35;;
44048;SDS011;29717;47.028;15.470;2023-09-18T12:32:59;5.20;;;4.70;;
44048;SDS011;29717;47.028;15.470;2023-09-18T12:35:26;5.47;;;4.97;;
44048;SDS011;29717;47.028;15.470;2023-09-18T12:37:55;5.38;;;4.90;;
44048;SDS011;29717;47.028;15.470;2023-09-18T12:40:22;6.90;;;5.47;;
44048;SDS011;29717;47.028;15.470;2023-09-18T12:42:48;6.15;;;5.55;;
44048;SDS011;29717;47.028;15.470;2023-09-18T12:45:15;7.50;;;5.10;;
44048;SDS011;29717;47.028;15.470;2023-09-18T12:47:44;6.07;;;5.07;;
44048;SDS011;29717;47.028;15.470;2023-09-18T12:50:12;5.82;;;4.70;;
44048;SDS011;29717;47.028;15.470;2023-09-18T12:52:40;6.60;;;4.63;;
44048;SDS011;29717;47.028;15.470;2023-09-18T12:55:07;5.85;;;5.10;;
44048;SDS011;29717;47.028;15.470;2023-09-18T12:57:34;8.00;;;4.15;;
44048;SDS011;29717;47.028;15.470;2023-09-18T13:00:08;5.85;;;4.75;;
44048;SDS011;29717;47.028;15.470;2023-09-18T13:02:37;7.70;;;4.70;;
44048;SDS011;29717;47.028;15.470;2023-09-18T13:05:06;5.10;;;4.60;;
44048;SDS011;29717;47.028;15.470;2023-09-18T13:07:43;5.05;;;4.55;;
44048;SDS011;29717;47.028;15.470;2023-09-18T13:10:11;8.25;;;4.90;;
44048;SDS011;29717;47.028;15.470;2023-09-18T13:12:39;5.65;;;4.60;;
44048;SDS011;29717;47.028;15.470;2023-09-18T13:15:06;5.25;;;4.85;;
44048;SDS011;29717;47.028;15.470;2023-09-18T13:17:38;7.18;;;5.03;;
44048;SDS011;29717;47.028;15.470;2023-09-18T13:20:15;7.38;;;5.28;;
44048;SDS011;29717;47.028;15.470;2023-09-18T13:22:47;5.80;;;5.18;;
44048;SDS011;29717;47.028;15.470;2023-09-18T13:25:19;5.57;;;5.00;;
44048;SDS011;29717;47.028;15.470;2023-09-18T13:27:46;6.28;;;5.22;;
44048;SDS011;29717;47.028;15.470;2023-09-18T13:30:12;8.07;;;5.10;;
44048;SDS011;29717;47.028;15.470;2023-09-18T13:32:42;4.93;;;4.43;;
44048;SDS011;29717;47.028;15.470;2023-09-18T13:35:09;7.03;;;4.80;;
44048;SDS011;29717;47.028;15.470;2023-09-18T13:37:38;10.23;;;5.60;;
44048;SDS011;29717;47.028;15.470;2023-09-18T13:40:06;9.05;;;5.07;;
44048;SDS011;29717;47.028;15.470;2023-09-18T13:42:34;6.03;;;4.93;;
44048;SDS011;29717;47.028;15.470;2023-09-18T13:45:00;8.85;;;5.88;;
44048;SDS011;29717;47.028;15.470;2023-09-18T13:47:29;14.32;;;6.03;;
44048;SDS011;29717;47.028;15.470;2023-09-18T13:49:56;6.45;;;5.40;;
44048;SDS011;29717;47.028;15.470;2023-09-18T13:52:25;10.55;;;5.50;;
44048;SDS011;29717;47.028;15.470;2023-09-18T13:54:53;7.18;;;5.90;;
44048;SDS011;29717;47.028;15.470;2023-09-18T13:57:20;6.97;;;5.22;;
44048;SDS011;29717;47.028;15.470;2023-09-18T13:59:47;9.35;;;5.57;;
44048;SDS011;29717;47.028;15.470;2023-09-18T14:02:14;12.07;;;5.80;;
44048;SDS011;29717;47.028;15.470;2023-09-18T14:04:41;10.55;;;5.50;;
44048;SDS011;29717;47.028;15.470;2023-09-18T14:07:07;7.70;;;5.47;;
44048;SDS011;29717;47.028;15.470;2023-09-18T14:09:34;10.48;;;5.85;;
44048;SDS011;29717;47.028;15.470;2023-09-18T14:12:03;6.55;;;5.63;;
44048;SDS011;29717;47.028;15.470;2023-09-18T14:14:30;9.48;;;5.80;;
44048;SDS011;29717;47.028;15.470;2023-09-18T14:16:57;7.00;;;5.85;;
44048;SDS011;29717;47.028;15.470;2023-09-18T14:19:24;7.95;;;5.68;;
44048;SDS011;29717;47.028;15.470;2023-09-18T14:21:51;8.10;;;5.32;;
44048;SDS011;29717;47.028;15.470;2023-09-18T14:24:18;9.65;;;5.30;;
44048;SDS011;29717;47.028;15.470;2023-09-18T14:26:49;10.20;;;5.57;;
44048;SDS011;29717;47.028;15.470;2023-09-18T14:29:18;10.27;;;6.05;;
44048;SDS011;29717;47.028;15.470;2023-09-18T14:31:44;10.85;;;6.05;;
44048;SDS011;29717;47.028;15.470;2023-09-18T14:34:11;9.13;;;5.50;;
44048;SDS011;29717;47.028;15.470;2023-09-18T14:36:38;8.95;;;6.15;;